Time;durP1;ratioP1;P1;durP2;ratioP2;P2;SDS_P1;SDS_P2;PMS_P1;PMS_P2;Temp;Humidity;BMP_temperature;BMP_pressure;BME280_temperature;BME280_humidity;BME280_pressure;Samples;Min_cycle;Max_cycle;Signal;HPM_P1;HPM_P2
2023/05/07 00:00:54;;;;;;;17.27;15.68;;;13.70;99.90;;;;;;4986023;28;20038;-80
2023/05/07 00:03:21;;;;;;;17.35;15.63;;;13.60;99.90;;;;;;4982708;28;20049;-80
2023/05/07 00:05:47;;;;;;;19.27;17.38;;;13.60;99.90;;;;;;4986709;28;20124;-80
2023/05/07 00:08:13;;;;;;;19.02;17.13;;;13.60;99.90;;;;;;4966564;28;20544;-81
2023/05/07 00:10:39;;;;;;;18.67;16.98;;;13.60;99.90;;;;;;4950380;28;20151;-80
2023/05/07 00:13:05;;;;;;;19.20;17.40;;;13.60;99.90;;;;;;4979934;28;20049;-80
2023/05/07 00:15:31;;;;;;;20.05;18.02;;;13.60;99.90;;;;;;4952278;28;20049;-79
2023/05/07 00:17:59;;;;;;;20.77;18.88;;;13.50;99.90;;;;;;4958803;28;21294;-81
2023/05/07 00:20:25;;;;;;;21.27;19.20;;;13.50;99.90;;;;;;4972916;28;20038;-80
2023/05/07 00:22:51;;;;;;;21.73;19.63;;;13.50;99.90;;;;;;4961438;28;20064;-79
2023/05/07 00:25:19;;;;;;;22.23;20.13;;;13.50;99.90;;;;;;4974245;28;20057;-80
2023/05/07 00:27:45;;;;;;;23.40;21.13;;;13.40;99.90;;;;;;4960118;28;20370;-80
2023/05/07 00:30:11;;;;;;;23.75;21.55;;;13.40;99.90;;;;;;5006642;28;20163;-83
2023/05/07 00:32:37;;;;;;;24.98;22.38;;;13.40;99.90;;;;;;4980831;28;20097;-80
2023/05/07 00:35:04;;;;;;;25.50;22.92;;;13.40;99.90;;;;;;4996075;28;20050;-84
2023/05/07 00:37:30;;;;;;;25.27;22.67;;;13.40;99.90;;;;;;4972612;28;20052;-80
2023/05/07 00:39:56;;;;;;;25.35;23.13;;;13.30;99.90;;;;;;5005241;28;20041;-82
2023/05/07 00:42:23;;;;;;;28.52;25.65;;;13.30;99.90;;;;;;4986815;28;20500;-81
2023/05/07 00:44:50;;;;;;;28.63;25.92;;;13.30;99.90;;;;;;4967970;28;20050;-80
2023/05/07 00:47:18;;;;;;;29.05;26.45;;;13.30;99.90;;;;;;5003317;28;20505;-80
2023/05/07 00:49:45;;;;;;;28.45;25.75;;;13.20;99.90;;;;;;4956722;28;20137;-80
2023/05/07 00:52:16;;;;;;;28.65;26.02;;;13.20;99.90;;;;;;4987432;28;20547;-80
2023/05/07 00:54:42;;;;;;;29.92;27.05;;;13.20;99.90;;;;;;4988074;28;20112;-85
2023/05/07 00:57:10;;;;;;;31.23;28.10;;;13.20;99.90;;;;;;4971795;28;20541;-81
2023/05/07 00:59:37;;;;;;;30.13;27.13;;;13.10;99.90;;;;;;4979178;28;20095;-83
2023/05/07 01:02:03;;;;;;;31.90;28.90;;;13.10;99.90;;;;;;5006016;28;20092;-82
2023/05/07 01:04:29;;;;;;;31.80;28.67;;;13.00;99.90;;;;;;4972330;28;20049;-80
2023/05/07 01:06:56;;;;;;;32.70;29.50;;;13.00;99.90;;;;;;4982710;28;20061;-81
2023/05/07 01:09:24;;;;;;;32.92;29.63;;;13.00;99.90;;;;;;4983552;28;20517;-81
2023/05/07 01:11:51;;;;;;;33.70;30.45;;;13.00;99.90;;;;;;4985661;28;20517;-80
2023/05/07 01:14:18;;;;;;;33.55;30.25;;;13.00;99.90;;;;;;4969681;28;20481;-80
2023/05/07 01:16:44;;;;;;;32.17;29.17;;;12.90;99.90;;;;;;4965129;28;20669;-79
2023/05/07 01:19:13;;;;;;;35.95;32.55;;;12.90;99.90;;;;;;4959469;28;20049;-80
2023/05/07 01:21:44;;;;;;;34.97;31.48;;;12.90;99.90;;;;;;4972302;28;20175;-80
2023/05/07 01:24:11;;;;;;;35.38;32.00;;;12.80;99.90;;;;;;4972205;28;20120;-80
2023/05/07 01:26:37;;;;;;;34.97;31.58;;;12.80;99.90;;;;;;4963446;28;20129;-79
2023/05/07 01:29:03;;;;;;;35.30;31.83;;;12.70;99.90;;;;;;4988495;28;20401;-80
2023/05/07 01:31:29;;;;;;;33.90;30.73;;;12.70;99.90;;;;;;4972760;28;20057;-78
2023/05/07 01:33:57;;;;;;;35.65;32.17;;;12.70;99.90;;;;;;4970573;28;20117;-80
2023/05/07 01:36:26;;;;;;;36.83;33.13;;;12.70;99.90;;;;;;5002773;28;20080;-80
2023/05/07 01:38:58;;;;;;;37.70;33.92;;;12.60;99.90;;;;;;4971063;28;20689;-82
2023/05/07 01:41:24;;;;;;;38.00;34.45;;;12.60;99.90;;;;;;5000633;28;20069;-81
2023/05/07 01:43:51;;;;;;;37.58;33.83;;;12.60;99.90;;;;;;4957283;28;20579;-78
2023/05/07 01:46:18;;;;;;;38.38;34.63;;;12.60;99.90;;;;;;4998682;28;20057;-80
2023/05/07 01:48:45;;;;;;;38.83;35.03;;;12.50;99.90;;;;;;5001337;28;20061;-78
2023/05/07 01:51:12;;;;;;;38.60;34.88;;;12.40;99.90;;;;;;4970229;28;20059;-79
2023/05/07 01:53:40;;;;;;;40.20;36.40;;;12.40;99.90;;;;;;4986132;28;20046;-80
2023/05/07 01:56:09;;;;;;;38.25;34.55;;;12.40;99.90;;;;;;4982059;28;20045;-79
2023/05/07 01:58:38;;;;;;;39.60;35.67;;;12.30;99.90;;;;;;4975847;28;20085;-78
2023/05/07 02:01:04;;;;;;;38.72;34.83;;;12.30;99.90;;;;;;4996658;28;20216;-79
2023/05/07 02:03:30;;;;;;;40.40;36.50;;;12.20;99.90;;;;;;4977086;28;20035;-78
2023/05/07 02:05:56;;;;;;;40.92;36.95;;;12.20;99.90;;;;;;4985631;28;20461;-79
2023/05/07 02:08:22;;;;;;;39.45;35.60;;;12.10;99.90;;;;;;4955816;28;20501;-79
2023/05/07 02:10:48;;;;;;;42.40;38.05;;;12.10;99.90;;;;;;4983054;28;20054;-79
2023/05/07 02:13:13;;;;;;;42.47;38.17;;;12.10;99.90;;;;;;5002858;28;20037;-79
2023/05/07 02:15:39;;;;;;;41.30;37.28;;;12.00;99.90;;;;;;4970216;28;20050;-79
2023/05/07 02:18:08;;;;;;;41.47;37.65;;;12.00;99.90;;;;;;4971442;28;20129;-79
2023/05/07 02:20:35;;;;;;;41.95;37.97;;;12.00;99.90;;;;;;4985582;28;20038;-79
2023/05/07 02:23:00;;;;;;;40.78;36.78;;;11.90;99.90;;;;;;5021013;28;20104;-79
2023/05/07 02:25:26;;;;;;;41.15;36.97;;;11.90;99.90;;;;;;4970171;28;20038;-80
2023/05/07 02:27:52;;;;;;;43.00;38.72;;;11.90;99.90;;;;;;4952677;28;20125;-79
2023/05/07 02:30:18;;;;;;;43.83;39.33;;;11.90;99.90;;;;;;4980301;28;20081;-78
2023/05/07 02:32:44;;;;;;;40.97;37.03;;;11.90;99.90;;;;;;5017405;28;20164;-79
2023/05/07 02:35:10;;;;;;;43.90;39.40;;;11.90;99.90;;;;;;4986730;28;20049;-79
2023/05/07 02:37:36;;;;;;;43.65;39.35;;;11.90;99.90;;;;;;4971642;28;20560;-79
2023/05/07 02:40:03;;;;;;;43.85;39.35;;;11.80;99.90;;;;;;5002590;28;20132;-79
2023/05/07 02:42:29;;;;;;;46.22;41.53;;;11.80;99.90;;;;;;4969590;28;20041;-79
2023/05/07 02:44:55;;;;;;;45.25;40.75;;;11.70;99.90;;;;;;4971079;28;20052;-79
2023/05/07 02:47:26;;;;;;;45.55;41.05;;;11.70;99.90;;;;;;4980864;28;20061;-79
2023/05/07 02:49:53;;;;;;;46.10;41.28;;;11.70;99.90;;;;;;4965598;28;20044;-80
2023/05/07 02:52:19;;;;;;;45.80;41.17;;;11.60;99.90;;;;;;4985864;28;20050;-79
2023/05/07 02:54:44;;;;;;;47.00;42.15;;;11.60;99.90;;;;;;4968536;28;20041;-79
2023/05/07 02:57:10;;;;;;;49.53;44.28;;;11.60;99.90;;;;;;4988416;28;20050;-81
2023/05/07 02:59:36;;;;;;;48.10;43.20;;;11.60;99.90;;;;;;4971412;28;20054;-79
2023/05/07 03:02:02;;;;;;;47.72;42.92;;;11.60;99.90;;;;;;4987987;28;20124;-80
2023/05/07 03:04:27;;;;;;;49.10;44.03;;;11.60;99.90;;;;;;4973867;28;20045;-80
2023/05/07 03:06:53;;;;;;;49.28;44.30;;;11.50;99.90;;;;;;4984890;28;20559;-80
2023/05/07 03:09:19;;;;;;;50.15;44.75;;;11.50;99.90;;;;;;4973462;28;20137;-80
2023/05/07 03:11:45;;;;;;;49.10;44.20;;;11.50;99.90;;;;;;4972244;28;20050;-80
2023/05/07 03:14:11;;;;;;;49.22;44.15;;;11.50;99.90;;;;;;4955087;28;20250;-78
2023/05/07 03:16:36;;;;;;;51.72;46.30;;;11.50;99.90;;;;;;4973256;28;20117;-80
2023/05/07 03:19:02;;;;;;;51.55;46.05;;;11.50;99.90;;;;;;4985848;28;20050;-80
2023/05/07 03:21:28;;;;;;;52.72;47.10;;;11.50;99.90;;;;;;4962770;28;20081;-79
2023/05/07 03:23:53;;;;;;;53.63;48.05;;;11.50;99.90;;;;;;4953847;28;20046;-80
2023/05/07 03:26:20;;;;;;;53.60;47.95;;;11.50;99.90;;;;;;4964754;28;20061;-79
2023/05/07 03:28:48;;;;;;;52.80;47.28;;;11.50;99.90;;;;;;4963368;28;20050;-80
2023/05/07 03:31:14;;;;;;;53.42;47.95;;;11.40;99.90;;;;;;4988479;28;20046;-79
2023/05/07 03:33:54;;;;;;;53.50;47.80;;;11.40;99.90;;;;;;4985871;28;20042;-80
2023/05/07 03:36:21;;;;;;;54.15;48.35;;;11.50;99.90;;;;;;4990196;28;20115;-80
2023/05/07 03:38:48;;;;;;;55.25;49.30;;;11.40;99.90;;;;;;4971087;28;20500;-80
2023/05/07 03:41:14;;;;;;;55.92;49.75;;;11.40;99.90;;;;;;4979645;28;20049;-81
2023/05/07 03:43:40;;;;;;;56.00;49.30;;;11.40;99.90;;;;;;4972826;28;20042;-80
2023/05/07 03:46:06;;;;;;;56.22;50.40;;;11.40;99.90;;;;;;4987545;28;20050;-81
2023/05/07 03:48:31;;;;;;;56.55;50.58;;;11.40;99.90;;;;;;4986663;28;20046;-80
2023/05/07 03:50:58;;;;;;;56.10;50.35;;;11.40;99.90;;;;;;4956025;28;20084;-83
2023/05/07 03:53:24;;;;;;;54.03;48.42;;;11.30;99.90;;;;;;4955593;28;20043;-80
2023/05/07 03:55:54;;;;;;;56.28;49.92;;;11.40;99.90;;;;;;4969970;28;20132;-79
2023/05/07 03:58:19;;;;;;;56.97;50.92;;;11.30;99.90;;;;;;4982620;28;20054;-80
2023/05/07 04:00:45;;;;;;;55.83;49.72;;;11.30;99.90;;;;;;4974028;28;20049;-79
2023/05/07 04:03:11;;;;;;;56.13;50.05;;;11.40;99.90;;;;;;4983568;28;20074;-81
2023/05/07 04:05:37;;;;;;;55.03;49.25;;;11.30;99.90;;;;;;4974904;28;20081;-80
2023/05/07 04:08:03;;;;;;;57.75;51.45;;;11.30;99.90;;;;;;4991602;28;20042;-80
2023/05/07 04:10:29;;;;;;;57.60;51.50;;;11.30;99.90;;;;;;4954215;28;20405;-80
2023/05/07 04:12:58;;;;;;;58.05;51.80;;;11.30;99.90;;;;;;5008681;28;20046;-79
2023/05/07 04:15:24;;;;;;;57.90;51.70;;;11.30;99.90;;;;;;4988998;28;20080;-83
2023/05/07 04:17:51;;;;;;;57.67;51.30;;;11.30;99.90;;;;;;4989483;28;20985;-82
2023/05/07 04:20:17;;;;;;;58.15;52.03;;;11.30;99.90;;;;;;4968703;28;20116;-81
2023/05/07 04:22:43;;;;;;;57.33;51.05;;;11.30;99.90;;;;;;4981287;28;20050;-79
2023/05/07 04:25:09;;;;;;;56.33;50.40;;;11.30;99.90;;;;;;4989153;28;20184;-81
2023/05/07 04:27:35;;;;;;;55.63;49.63;;;11.30;99.90;;;;;;4968926;28;22850;-85
2023/05/07 04:30:02;;;;;;;55.22;49.38;;;11.30;99.90;;;;;;4970919;28;20046;-82
2023/05/07 04:32:29;;;;;;;55.63;50.03;;;11.30;99.90;;;;;;4957465;28;20042;-84
2023/05/07 04:34:55;;;;;;;58.67;49.90;;;11.30;99.90;;;;;;4974091;28;20038;-80
2023/05/07 04:37:21;;;;;;;55.42;49.58;;;11.30;99.90;;;;;;4965636;28;20115;-81
2023/05/07 04:39:47;;;;;;;55.05;49.22;;;11.30;99.90;;;;;;4989863;28;20042;-80
2023/05/07 04:42:20;;;;;;;52.47;47.08;;;11.20;99.90;;;;;;4961939;28;20049;-81
2023/05/07 04:44:45;;;;;;;54.33;48.63;;;11.20;99.90;;;;;;5005874;28;20154;-80
2023/05/07 04:47:12;;;;;;;51.63;46.40;;;11.30;99.90;;;;;;4987669;28;20125;-82
2023/05/07 04:49:40;;;;;;;53.13;47.55;;;11.20;99.90;;;;;;4972255;28;20057;-80
2023/05/07 04:52:06;;;;;;;51.65;46.28;;;11.20;99.90;;;;;;4982409;28;20091;-80
2023/05/07 04:54:32;;;;;;;50.55;45.20;;;11.20;99.90;;;;;;4988572;28;20046;-80
2023/05/07 04:56:58;;;;;;;50.15;45.08;;;11.20;99.90;;;;;;4990217;28;20500;-81
2023/05/07 04:59:24;;;;;;;49.40;44.33;;;11.30;99.90;;;;;;4982159;28;20061;-80
2023/05/07 05:01:49;;;;;;;50.15;44.92;;;11.30;99.90;;;;;;4986924;28;20058;-79
2023/05/07 05:04:15;;;;;;;48.78;43.75;;;11.20;99.90;;;;;;4969246;28;20042;-79
2023/05/07 05:06:41;;;;;;;48.92;43.92;;;11.20;99.90;;;;;;4970075;28;20041;-80
2023/05/07 05:09:07;;;;;;;49.63;44.45;;;11.20;99.90;;;;;;5004692;28;20704;-81
2023/05/07 05:11:32;;;;;;;47.20;42.58;;;11.20;99.90;;;;;;4975963;28;20557;-81
2023/05/07 05:14:00;;;;;;;47.13;42.40;;;11.20;99.90;;;;;;4986041;28;20030;-81
2023/05/07 05:16:26;;;;;;;47.60;42.70;;;11.20;99.90;;;;;;4988422;28;20539;-82
2023/05/07 05:18:52;;;;;;;45.83;41.25;;;11.20;99.90;;;;;;4956912;28;20050;-81
2023/05/07 05:21:18;;;;;;;44.78;40.45;;;11.30;99.90;;;;;;4969825;28;20046;-81
2023/05/07 05:23:43;;;;;;;46.75;42.05;;;11.30;99.90;;;;;;4971587;28;20058;-82
2023/05/07 05:26:10;;;;;;;47.15;42.50;;;11.30;99.90;;;;;;4982600;28;20764;-83
2023/05/07 05:28:36;;;;;;;46.28;41.50;;;11.30;99.90;;;;;;4970313;28;20095;-79
2023/05/07 05:31:02;;;;;;;46.10;41.50;;;11.30;99.90;;;;;;4970839;28;20675;-83
2023/05/07 05:33:28;;;;;;;46.40;42.03;;;11.20;99.90;;;;;;4988119;28;20045;-81
2023/05/07 05:35:54;;;;;;;46.05;41.65;;;11.30;99.90;;;;;;4982044;28;20512;-81
2023/05/07 05:38:20;;;;;;;46.67;42.03;;;11.30;99.90;;;;;;4985439;28;20049;-80
2023/05/07 05:40:46;;;;;;;44.28;39.88;;;11.30;99.90;;;;;;4986248;28;20521;-84
2023/05/07 05:43:13;;;;;;;45.10;40.70;;;11.30;99.90;;;;;;4967031;28;20046;-82
2023/05/07 05:45:39;;;;;;;45.75;41.22;;;11.30;99.90;;;;;;4971260;28;20347;-81
2023/05/07 05:48:05;;;;;;;42.90;38.88;;;11.30;99.90;;;;;;4972324;28;20030;-83
2023/05/07 05:50:31;;;;;;;44.67;40.25;;;11.30;99.90;;;;;;4972006;28;20046;-81
2023/05/07 05:52:57;;;;;;;44.25;39.75;;;11.30;99.90;;;;;;4985919;28;20402;-78
2023/05/07 05:55:23;;;;;;;44.67;40.35;;;11.40;99.90;;;;;;4986646;28;20127;-81
2023/05/07 05:57:50;;;;;;;44.83;40.15;;;11.40;99.90;;;;;;4983750;28;20140;-81
2023/05/07 06:00:16;;;;;;;43.03;38.85;;;11.40;99.90;;;;;;4970738;28;20493;-81
2023/05/07 06:02:45;;;;;;;45.28;40.80;;;11.40;99.90;;;;;;4972492;28;20128;-79
2023/05/07 06:05:10;;;;;;;42.95;38.65;;;11.40;99.90;;;;;;4977444;28;20039;-78
2023/05/07 06:07:36;;;;;;;43.65;39.35;;;11.50;99.90;;;;;;4985866;28;20095;-79
2023/05/07 06:10:02;;;;;;;43.13;39.03;;;11.50;99.90;;;;;;4988355;28;20127;-79
2023/05/07 06:12:28;;;;;;;43.25;39.17;;;11.50;99.90;;;;;;4979120;28;20049;-80
2023/05/07 06:14:53;;;;;;;43.38;39.17;;;11.50;99.90;;;;;;4984006;28;20038;-79
2023/05/07 06:17:19;;;;;;;42.63;38.65;;;11.60;99.90;;;;;;4969244;28;20491;-79
2023/05/07 06:19:45;;;;;;;42.75;38.65;;;11.50;99.90;;;;;;4963397;28;20098;-79
2023/05/07 06:22:11;;;;;;;42.15;38.13;;;11.60;99.90;;;;;;4962062;28;20116;-79
2023/05/07 06:24:37;;;;;;;44.40;40.10;;;11.60;99.90;;;;;;5003047;28;20048;-78
2023/05/07 06:27:03;;;;;;;43.67;39.35;;;11.60;99.90;;;;;;5003839;28;20046;-83
2023/05/07 06:29:31;;;;;;;43.97;39.67;;;11.60;99.90;;;;;;4966511;28;20061;-78
2023/05/07 06:32:05;;;;;;;43.85;39.47;;;11.60;99.90;;;;;;4964553;28;20052;-77
2023/05/07 06:34:31;;;;;;;42.25;38.20;;;11.60;99.90;;;;;;4974276;28;20456;-76
2023/05/07 06:36:57;;;;;;;42.80;38.78;;;11.60;99.90;;;;;;5003782;28;20041;-78
2023/05/07 06:39:22;;;;;;;41.47;37.53;;;11.60;99.90;;;;;;4970383;28;20776;-76
2023/05/07 06:41:48;;;;;;;43.05;39.03;;;11.60;99.90;;;;;;4956294;28;20069;-78
2023/05/07 06:44:14;;;;;;;44.17;39.95;;;11.60;99.90;;;;;;4973899;28;20055;-78
2023/05/07 06:46:41;;;;;;;44.28;39.97;;;11.60;99.90;;;;;;4967915;28;20416;-77
2023/05/07 06:49:07;;;;;;;43.70;39.40;;;11.70;99.90;;;;;;5004601;28;20574;-75
2023/05/07 06:51:33;;;;;;;42.97;38.92;;;11.70;99.90;;;;;;4986989;28;20050;-77
2023/05/07 06:53:59;;;;;;;44.80;40.47;;;11.80;99.90;;;;;;4964236;28;20053;-76
2023/05/07 06:56:25;;;;;;;43.42;39.13;;;11.80;99.90;;;;;;4967363;28;20049;-80
2023/05/07 06:58:51;;;;;;;44.83;40.53;;;11.90;99.90;;;;;;4987821;28;20049;-79
2023/05/07 07:01:17;;;;;;;43.88;39.55;;;11.90;99.90;;;;;;4964688;28;20050;-76
2023/05/07 07:03:43;;;;;;;43.75;39.15;;;12.00;99.90;;;;;;4986635;28;20085;-80
2023/05/07 07:06:09;;;;;;;42.80;38.63;;;12.00;99.90;;;;;;4984972;28;20069;-77
2023/05/07 07:08:34;;;;;;;45.53;40.90;;;12.10;99.90;;;;;;4954937;28;20531;-77
2023/05/07 07:11:00;;;;;;;43.10;38.83;;;12.10;99.90;;;;;;5003562;28;20050;-77
2023/05/07 07:13:26;;;;;;;44.13;39.72;;;12.10;99.90;;;;;;4986272;28;20046;-81
2023/05/07 07:15:53;;;;;;;43.17;38.88;;;12.10;99.90;;;;;;4971060;28;20107;-76
2023/05/07 07:18:22;;;;;;;47.05;42.03;;;12.10;99.90;;;;;;4967004;28;20042;-76
2023/05/07 07:20:48;;;;;;;44.05;39.63;;;12.10;99.90;;;;;;5003145;28;20054;-75
2023/05/07 07:23:14;;;;;;;43.38;39.13;;;12.10;99.90;;;;;;5004131;28;20045;-75
2023/05/07 07:25:40;;;;;;;43.78;39.40;;;12.20;99.90;;;;;;4966695;28;20823;-75
2023/05/07 07:28:06;;;;;;;43.67;39.17;;;12.30;99.90;;;;;;4985588;28;20038;-76
2023/05/07 07:30:32;;;;;;;42.20;38.17;;;12.40;99.90;;;;;;5007543;28;20050;-76
2023/05/07 07:33:02;;;;;;;42.55;38.45;;;12.40;99.90;;;;;;4989543;28;20390;-76
2023/05/07 07:35:29;;;;;;;43.95;39.63;;;12.50;99.90;;;;;;4976516;28;20496;-76
2023/05/07 07:37:55;;;;;;;41.55;37.47;;;12.50;99.90;;;;;;4982092;28;20594;-77
2023/05/07 07:40:24;;;;;;;41.78;37.55;;;12.60;99.90;;;;;;4984105;28;20121;-76
2023/05/07 07:42:51;;;;;;;42.97;38.85;;;12.60;99.90;;;;;;4989398;28;20045;-78
2023/05/07 07:45:17;;;;;;;41.45;37.40;;;12.70;99.90;;;;;;4988513;28;20122;-74
2023/05/07 07:47:43;;;;;;;42.15;37.88;;;12.70;99.90;;;;;;4989312;28;20570;-76
2023/05/07 07:50:09;;;;;;;42.28;38.08;;;12.80;99.90;;;;;;5003974;28;20085;-75
2023/05/07 07:52:35;;;;;;;41.65;37.58;;;12.90;99.90;;;;;;5004812;28;20578;-74
2023/05/07 07:55:01;;;;;;;40.90;36.92;;;12.90;99.90;;;;;;5007965;28;20042;-75
2023/05/07 07:57:27;;;;;;;41.45;37.45;;;13.00;99.90;;;;;;5003192;28;20057;-76
2023/05/07 07:59:53;;;;;;;41.00;36.83;;;13.00;99.90;;;;;;4990889;28;20060;-76
2023/05/07 08:02:19;;;;;;;40.95;36.90;;;13.10;99.90;;;;;;4986839;28;20045;-76
2023/05/07 08:04:45;;;;;;;38.75;34.95;;;13.20;99.90;;;;;;5009088;28;20045;-76
2023/05/07 08:07:11;;;;;;;39.80;35.88;;;13.30;99.90;;;;;;5003368;28;20080;-75
2023/05/07 08:09:40;;;;;;;39.33;35.58;;;13.30;99.90;;;;;;4996903;28;20121;-76
2023/05/07 08:12:07;;;;;;;39.53;35.53;;;13.20;99.90;;;;;;5004023;28;20056;-76
2023/05/07 08:14:33;;;;;;;39.20;35.30;;;13.20;99.90;;;;;;5007234;28;20097;-76
2023/05/07 08:16:59;;;;;;;39.08;35.25;;;13.20;99.90;;;;;;5008004;28;20052;-75
2023/05/07 08:19:25;;;;;;;39.42;35.65;;;13.20;99.90;;;;;;5006856;28;20117;-75
2023/05/07 08:21:51;;;;;;;38.58;34.88;;;13.20;99.90;;;;;;5007003;28;20802;-76
2023/05/07 08:24:17;;;;;;;39.47;35.58;;;13.30;99.90;;;;;;5022564;28;20046;-76
2023/05/07 08:26:44;;;;;;;41.38;37.38;;;13.30;99.90;;;;;;5005283;28;20496;-77
2023/05/07 08:29:10;;;;;;;40.90;36.85;;;13.30;99.90;;;;;;4991216;28;20108;-77
2023/05/07 08:31:38;;;;;;;39.70;35.80;;;13.30;99.90;;;;;;5000099;28;20037;-77
2023/05/07 08:34:05;;;;;;;38.72;35.05;;;13.40;99.90;;;;;;4988199;28;20117;-76
2023/05/07 08:36:30;;;;;;;38.22;34.55;;;13.40;99.90;;;;;;5000105;28;20060;-76
2023/05/07 08:39:00;;;;;;;38.28;34.47;;;13.50;99.90;;;;;;5005473;28;20485;-76
2023/05/07 08:41:26;;;;;;;40.13;36.33;;;13.50;99.90;;;;;;5003349;28;20044;-76
2023/05/07 08:43:59;;;;;;;42.15;38.00;;;13.60;99.90;;;;;;4988806;28;20133;-77
2023/05/07 08:46:31;;;;;;;40.75;36.95;;;13.60;99.90;;;;;;4990139;28;20038;-75
2023/05/07 08:48:56;;;;;;;40.80;36.80;;;13.60;99.90;;;;;;4984871;28;20305;-73
2023/05/07 08:51:22;;;;;;;38.88;35.17;;;13.70;99.90;;;;;;4988065;28;20042;-77
2023/05/07 08:53:49;;;;;;;40.83;36.92;;;13.80;99.90;;;;;;4968997;28;20071;-77
2023/05/07 08:56:16;;;;;;;40.40;36.38;;;13.90;99.90;;;;;;4986058;28;20041;-76
2023/05/07 08:58:45;;;;;;;40.42;36.63;;;14.00;99.90;;;;;;4983458;28;20062;-75
2023/05/07 09:01:16;;;;;;;39.15;35.45;;;14.10;99.90;;;;;;5000901;28;20049;-73
2023/05/07 09:03:45;;;;;;;38.10;34.40;;;14.20;99.90;;;;;;5000316;28;20080;-76
2023/05/07 09:06:11;;;;;;;38.13;34.50;;;14.30;99.90;;;;;;5004151;28;20048;-76
2023/05/07 09:08:36;;;;;;;37.92;34.35;;;14.50;99.90;;;;;;4990191;28;20084;-76
2023/05/07 09:11:03;;;;;;;38.47;34.78;;;14.40;99.90;;;;;;5004090;28;20046;-77
2023/05/07 09:13:29;;;;;;;37.78;34.17;;;14.40;99.90;;;;;;4985721;28;20037;-76
2023/05/07 09:15:56;;;;;;;39.35;35.75;;;14.50;99.90;;;;;;4987806;28;20046;-76
2023/05/07 09:18:23;;;;;;;36.58;33.17;;;14.50;99.90;;;;;;5005302;28;20085;-77
2023/05/07 09:20:49;;;;;;;36.58;33.10;;;14.60;99.90;;;;;;5012653;28;20069;-77
2023/05/07 09:23:15;;;;;;;37.95;34.53;;;14.60;99.90;;;;;;5005470;28;20037;-76
2023/05/07 09:25:41;;;;;;;37.75;34.25;;;14.60;99.90;;;;;;4987423;28;20221;-76
2023/05/07 09:28:07;;;;;;;39.95;36.33;;;14.80;99.90;;;;;;5002623;28;20045;-76
2023/05/07 09:30:33;;;;;;;38.13;34.63;;;15.00;99.90;;;;;;5006685;28;20092;-73
2023/05/07 09:33:01;;;;;;;34.85;31.35;;;15.20;99.90;;;;;;5002507;28;20046;-77
2023/05/07 09:35:27;;;;;;;36.55;33.20;;;15.30;99.90;;;;;;4983955;28;20045;-74
2023/05/07 09:37:55;;;;;;;35.45;32.15;;;15.30;99.90;;;;;;5005557;28;20412;-77
2023/05/07 09:40:27;;;;;;;36.05;32.72;;;15.40;99.90;;;;;;5004618;28;20062;-76
2023/05/07 09:42:53;;;;;;;32.60;29.45;;;15.60;99.90;;;;;;5002846;28;20928;-76
2023/05/07 09:45:26;;;;;;;34.30;31.10;;;15.80;99.90;;;;;;4988769;28;20046;-76
2023/05/07 09:47:57;;;;;;;33.13;30.02;;;15.90;99.90;;;;;;4986536;28;20514;-77
2023/05/07 09:50:32;;;;;;;34.05;30.83;;;15.90;99.90;;;;;;4992284;28;20050;-76
2023/05/07 09:52:58;;;;;;;32.50;29.45;;;16.00;99.90;;;;;;5000107;28;20042;-77
2023/05/07 09:55:25;;;;;;;31.27;28.48;;;16.10;99.90;;;;;;5002606;28;20100;-78
2023/05/07 09:57:55;;;;;;;30.70;27.95;;;16.30;99.90;;;;;;4996606;28;20037;-78
2023/05/07 10:00:21;;;;;;;;;;;16.30;99.90;;;;;;5003060;28;20539;-77
2023/05/07 10:02:51;;;;;;;30.80;27.88;;;16.50;99.90;;;;;;5001914;28;19948;-76
2023/05/07 10:05:18;;;;;;;31.02;28.23;;;16.50;99.90;;;;;;5002863;28;20092;-77
2023/05/07 10:07:44;;;;;;;32.72;29.42;;;16.60;99.90;;;;;;4988322;28;20052;-77
2023/05/07 10:10:11;;;;;;;32.65;29.63;;;16.70;99.90;;;;;;5001661;28;20060;-76
2023/05/07 10:12:40;;;;;;;29.48;26.90;;;16.70;99.90;;;;;;5002696;28;20395;-76
2023/05/07 10:15:08;;;;;;;29.92;27.23;;;16.80;99.90;;;;;;4998372;28;20045;-76
2023/05/07 10:17:36;;;;;;;29.73;27.02;;;16.80;99.90;;;;;;5002856;28;20048;-76
2023/05/07 10:20:02;;;;;;;32.25;29.35;;;16.70;99.90;;;;;;4986557;28;20064;-76
2023/05/07 10:22:37;;;;;;;30.15;27.42;;;16.80;99.90;;;;;;5003277;28;20489;-75
2023/05/07 10:25:06;;;;;;;31.15;28.40;;;16.80;99.90;;;;;;5000321;28;20046;-76
2023/05/07 10:27:33;;;;;;;28.35;25.92;;;16.70;99.90;;;;;;4999206;28;20111;-75
2023/05/07 10:30:31;;;;;;;31.00;28.23;;;16.70;99.90;;;;;;4988559;28;20044;-75
2023/05/07 10:33:05;;;;;;;28.23;25.63;;;16.80;99.90;;;;;;4985929;28;20049;-76
2023/05/07 10:35:37;;;;;;;28.02;25.45;;;16.80;99.90;;;;;;4986797;28;20045;-75
2023/05/07 10:38:04;;;;;;;30.65;27.95;;;16.90;99.90;;;;;;5005991;28;20044;-75
2023/05/07 10:40:31;;;;;;;27.58;25.00;;;16.90;99.90;;;;;;5003709;28;20133;-74
2023/05/07 10:43:00;;;;;;;27.73;25.30;;;16.90;99.90;;;;;;5003592;28;20045;-75
2023/05/07 10:45:26;;;;;;;26.77;24.30;;;17.00;99.90;;;;;;5003219;28;20053;-73
2023/05/07 10:48:15;;;;;;;27.77;25.27;;;17.00;99.90;;;;;;5003264;28;20107;-73
2023/05/07 10:50:46;;;;;;;25.27;22.98;;;17.20;99.90;;;;;;4968290;28;20408;-74
2023/05/07 10:53:17;;;;;;;26.33;24.02;;;17.30;99.90;;;;;;5002169;28;20490;-74
2023/05/07 10:55:46;;;;;;;26.52;24.05;;;17.40;99.90;;;;;;5002142;28;20057;-72
2023/05/07 10:58:28;;;;;;;27.67;25.08;;;17.60;99.90;;;;;;5003208;28;20065;-72
2023/05/07 11:00:58;;;;;;;25.33;22.92;;;17.70;99.90;;;;;;4999817;28;20085;-73
2023/05/07 11:03:25;;;;;;;23.98;21.77;;;17.90;99.90;;;;;;5000107;28;20037;-72
2023/05/07 11:06:27;;;;;;;24.80;22.55;;;17.90;99.90;;;;;;5001144;28;20133;-75
2023/05/07 11:08:56;;;;;;;23.95;21.83;;;18.00;99.90;;;;;;4955177;28;20449;-76
2023/05/07 11:11:51;;;;;;;23.15;21.08;;;18.00;99.90;;;;;;4977145;28;20611;-72
2023/05/07 11:14:41;;;;;;;22.15;20.25;;;18.00;99.90;;;;;;4986140;28;20053;-74
2023/05/07 11:17:07;;;;;;;23.23;21.17;;;18.00;99.90;;;;;;4993172;28;20049;-73
2023/05/07 11:19:55;;;;;;;22.00;20.00;;;18.00;99.90;;;;;;5004839;28;20042;-75
2023/05/07 11:22:30;;;;;;;22.95;20.85;;;18.00;99.90;;;;;;5002374;28;20093;-77
2023/05/07 11:24:59;;;;;;;21.33;19.33;;;18.00;99.90;;;;;;5012834;28;20043;-76
2023/05/07 11:27:26;;;;;;;22.92;20.88;;;17.90;99.90;;;;;;5004714;28;20056;-77
2023/05/07 11:29:52;;;;;;;24.55;22.33;;;17.90;99.90;;;;;;5000828;28;20046;-78
2023/05/07 11:32:25;;;;;;;23.13;21.10;;;18.00;99.90;;;;;;5000512;28;20497;-76
2023/05/07 11:34:58;;;;;;;23.33;21.08;;;17.90;99.90;;;;;;5001475;28;20081;-76
2023/05/07 11:37:26;;;;;;;25.05;22.92;;;17.80;99.90;;;;;;5002476;28;20396;-76
2023/05/07 11:40:03;;;;;;;24.25;22.17;;;17.80;99.90;;;;;;4981414;28;20057;-77
2023/05/07 11:42:35;;;;;;;24.55;22.30;;;17.80;99.90;;;;;;4999718;28;20322;-77
2023/05/07 11:45:01;;;;;;;25.42;23.08;;;17.70;99.90;;;;;;5003372;28;20049;-75
2023/05/07 11:47:30;;;;;;;25.23;23.02;;;17.70;99.90;;;;;;5000665;28;20049;-76
2023/05/07 11:50:02;;;;;;;25.20;23.00;;;17.70;99.90;;;;;;5002608;28;20038;-74
2023/05/07 11:52:28;;;;;;;25.58;23.23;;;17.80;99.90;;;;;;5000189;28;20038;-74
2023/05/07 11:54:57;;;;;;;25.13;22.95;;;17.90;99.90;;;;;;5002973;28;20374;-73
2023/05/07 11:57:24;;;;;;;25.15;22.95;;;18.00;99.90;;;;;;4998824;28;20037;-74
2023/05/07 12:00:03;;;;;;;23.77;21.63;;;18.10;99.90;;;;;;5004564;28;20116;-74
2023/05/07 12:02:29;;;;;;;25.95;23.55;;;18.00;99.90;;;;;;5000974;28;20587;-73
2023/05/07 12:04:55;;;;;;;25.10;22.83;;;18.10;99.90;;;;;;4986044;28;20046;-75
2023/05/07 12:07:24;;;;;;;26.35;24.13;;;18.10;99.90;;;;;;5003228;28;20117;-75
2023/05/07 12:09:51;;;;;;;26.25;23.80;;;18.10;99.90;;;;;;5001115;28;20088;-73
2023/05/07 12:12:18;;;;;;;25.20;22.90;;;18.30;99.90;;;;;;4998461;28;20057;-74
2023/05/07 12:14:45;;;;;;;25.98;23.60;;;18.40;99.90;;;;;;5002381;28;20042;-72
2023/05/07 12:17:13;;;;;;;23.63;21.52;;;18.40;99.90;;;;;;5006105;28;20587;-73
2023/05/07 12:19:43;;;;;;;24.67;22.40;;;18.50;99.90;;;;;;5007670;28;20132;-72
2023/05/07 12:22:09;;;;;;;23.83;21.63;;;18.60;99.90;;;;;;5006197;28;20505;-73
2023/05/07 12:24:49;;;;;;;22.95;20.95;;;18.80;99.90;;;;;;5003768;28;20041;-73
2023/05/07 12:27:16;;;;;;;25.90;23.48;;;18.90;99.90;;;;;;5006900;28;20117;-72
2023/05/07 12:29:46;;;;;;;22.98;20.98;;;19.00;99.90;;;;;;5004452;28;20038;-72